Time;durP1;ratioP1;P1;durP2;ratioP2;P2;SDS_P1;SDS_P2;PMS_P1;PMS_P2;Temp;Humidity;BMP_temperature;BMP_pressure;BME280_temperature;BME280_humidity;BME280_pressure;Samples;Min_cycle;Max_cycle;Signal;HPM_P1;HPM_P2
2022/05/15 00:01:59;;;;;;;21.58;5.25;;;12.00;91.40;;;;;;5061303;28;20041;-46
2022/05/15 00:04:25;;;;;;;19.95;6.22;;;11.90;91.80;;;;;;5049881;28;20041;-47
2022/05/15 00:06:50;;;;;;;15.00;3.88;;;11.80;92.10;;;;;;5055043;28;20024;-50
2022/05/15 00:09:16;;;;;;;19.50;5.20;;;11.60;92.10;;;;;;5059425;28;20514;-46
2022/05/15 00:11:42;;;;;;;19.60;5.23;;;11.50;92.20;;;;;;5049259;28;20306;-47
2022/05/15 00:14:08;;;;;;;;;;;11.40;92.60;;;;;;5053623;28;20695;-46
2022/05/15 00:16:34;;;;;;;19.60;6.55;;;11.40;93.50;;;;;;5067308;28;19964;-46
2022/05/15 00:19:00;;;;;;;17.95;5.10;;;11.40;93.50;;;;;;5058360;28;20033;-47
2022/05/15 00:21:26;;;;;;;18.77;5.57;;;11.40;93.80;;;;;;5059128;28;20068;-47
2022/05/15 00:23:52;;;;;;;21.27;5.25;;;11.30;93.60;;;;;;5064047;28;20120;-47
2022/05/15 00:26:18;;;;;;;18.35;5.75;;;11.30;93.80;;;;;;5056242;28;20474;-46
2022/05/15 00:28:44;;;;;;;19.73;5.03;;;11.30;94.40;;;;;;5071779;28;20033;-47
2022/05/15 00:31:10;;;;;;;18.90;4.95;;;11.30;94.40;;;;;;5061619;28;20612;-49
2022/05/15 00:33:36;;;;;;;29.40;7.03;;;11.20;94.40;;;;;;5071159;28;20044;-47
2022/05/15 00:36:03;;;;;;;18.50;5.03;;;11.20;94.70;;;;;;5059571;28;20040;-49
2022/05/15 00:38:28;;;;;;;24.60;6.70;;;11.20;94.80;;;;;;5064357;28;20526;-47
2022/05/15 00:40:54;;;;;;;22.98;7.13;;;11.20;95.00;;;;;;5056836;28;20052;-47
2022/05/15 00:43:44;;;;;;;23.45;6.57;;;11.20;95.20;;;;;;5052990;28;20068;-46
2022/05/15 00:46:24;;;;;;;21.25;6.57;;;11.20;95.20;;;;;;5056102;28;20041;-46
2022/05/15 00:48:51;;;;;;;22.40;5.60;;;11.10;95.30;;;;;;5051663;28;20045;-46
2022/05/15 00:51:24;;;;;;;25.08;6.18;;;11.10;95.60;;;;;;5062021;28;20044;-46
2022/05/15 00:53:56;;;;;;;22.77;6.43;;;11.10;95.70;;;;;;5071924;28;20094;-48
2022/05/15 00:56:24;;;;;;;23.20;6.13;;;11.10;95.80;;;;;;5067570;28;20044;-46
2022/05/15 00:58:56;;;;;;;22.02;6.13;;;11.10;96.00;;;;;;5072809;28;20043;-46
2022/05/15 01:01:22;;;;;;;28.38;6.68;;;11.10;96.20;;;;;;5063066;28;20040;-46
2022/05/15 01:03:48;;;;;;;19.15;6.22;;;11.10;96.30;;;;;;5052445;28;20037;-47
2022/05/15 01:06:14;;;;;;;23.20;6.93;;;11.10;96.40;;;;;;5058497;28;20178;-47
2022/05/15 01:08:40;;;;;;;;;;;11.10;96.40;;;;;;5073506;28;20047;-46
2022/05/15 01:11:11;;;;;;;22.13;6.10;;;11.10;96.90;;;;;;5061795;28;19917;-51
2022/05/15 01:13:40;;;;;;;20.63;6.28;;;11.10;96.50;;;;;;5052776;28;20041;-47
2022/05/15 01:16:06;;;;;;;30.83;7.32;;;11.00;96.60;;;;;;5061525;28;20040;-47
2022/05/15 01:18:34;;;;;;;25.15;6.47;;;10.90;96.80;;;;;;5060504;28;20044;-48
2022/05/15 01:21:01;;;;;;;26.60;7.03;;;10.90;97.00;;;;;;5061214;28;20029;-49
2022/05/15 01:23:29;;;;;;;30.60;8.85;;;10.90;97.50;;;;;;5055894;28;20066;-48
2022/05/15 01:25:57;;;;;;;25.20;6.57;;;10.90;97.40;;;;;;5068218;28;20438;-47
2022/05/15 01:28:25;;;;;;;22.65;5.97;;;10.90;97.90;;;;;;5066331;28;20067;-47
2022/05/15 01:30:53;;;;;;;25.33;7.38;;;10.90;98.00;;;;;;5060476;28;20496;-49
2022/05/15 01:33:19;;;;;;;23.15;6.18;;;10.90;98.10;;;;;;5064148;28;20120;-48
2022/05/15 01:35:45;;;;;;;26.05;6.25;;;11.00;98.30;;;;;;5061378;28;20147;-48
2022/05/15 01:38:11;;;;;;;25.83;6.47;;;11.00;98.50;;;;;;5052224;28;20521;-46
2022/05/15 01:40:38;;;;;;;27.77;7.35;;;11.00;98.70;;;;;;5067472;28;20482;-48
2022/05/15 01:43:05;;;;;;;22.38;6.22;;;11.00;98.40;;;;;;5070490;28;20517;-49
2022/05/15 01:45:31;;;;;;;28.15;6.70;;;10.90;98.20;;;;;;5055495;28;20556;-46
2022/05/15 01:47:57;;;;;;;20.70;6.75;;;11.00;98.10;;;;;;5069470;28;20558;-46
2022/05/15 01:50:23;;;;;;;19.27;5.97;;;10.90;97.90;;;;;;5059845;28;20041;-47
2022/05/15 01:52:48;;;;;;;28.08;5.75;;;10.80;97.90;;;;;;5051794;28;20332;-46
2022/05/15 01:55:14;;;;;;;28.23;6.78;;;10.70;97.80;;;;;;5061914;28;20036;-49
2022/05/15 01:57:40;;;;;;;18.52;5.38;;;10.60;97.80;;;;;;5059974;28;20059;-50
2022/05/15 02:00:10;;;;;;;21.92;5.68;;;10.50;98.20;;;;;;5051966;28;20045;-49
2022/05/15 02:02:35;;;;;;;24.33;6.47;;;10.50;98.70;;;;;;5057512;28;20409;-46
2022/05/15 02:05:01;;;;;;;25.67;5.60;;;10.50;99.10;;;;;;5051233;28;20036;-47
2022/05/15 02:07:26;;;;;;;32.07;7.27;;;10.40;99.60;;;;;;5065763;28;20090;-48
2022/05/15 02:09:52;;;;;;;16.15;5.97;;;10.50;99.80;;;;;;5071868;28;20282;-46
2022/05/15 02:12:18;;;;;;;19.13;6.13;;;10.50;99.90;;;;;;5057788;28;20112;-45
2022/05/15 02:14:43;;;;;;;22.63;5.87;;;10.50;99.80;;;;;;5054162;28;20037;-46
2022/05/15 02:17:09;;;;;;;19.57;6.23;;;10.50;99.40;;;;;;5071374;28;20040;-49
2022/05/15 02:19:34;;;;;;;24.30;6.53;;;10.40;99.40;;;;;;5061258;28;20312;-46
2022/05/15 02:22:00;;;;;;;19.97;6.33;;;10.30;99.80;;;;;;5071283;28;20512;-46
2022/05/15 02:24:25;;;;;;;19.07;5.90;;;10.30;99.90;;;;;;5060640;28;20425;-47
2022/05/15 02:26:51;;;;;;;24.27;6.63;;;10.30;99.90;;;;;;5066792;28;20492;-48
2022/05/15 02:29:17;;;;;;;26.70;6.50;;;10.20;99.90;;;;;;5057463;28;20037;-49
2022/05/15 02:31:43;;;;;;;23.83;6.78;;;10.10;99.90;;;;;;5069218;28;20032;-46
2022/05/15 02:34:09;;;;;;;16.60;5.18;;;10.10;99.90;;;;;;5065032;28;20542;-47
2022/05/15 02:36:35;;;;;;;26.35;7.63;;;10.10;99.90;;;;;;5070632;28;20458;-46
2022/05/15 02:39:01;;;;;;;21.48;6.22;;;10.00;99.90;;;;;;5064440;28;20138;-46
2022/05/15 02:41:26;;;;;;;19.25;5.50;;;10.00;99.90;;;;;;5054423;28;20041;-46
2022/05/15 02:43:52;;;;;;;21.60;6.43;;;10.00;99.90;;;;;;5052341;28;20132;-47
2022/05/15 02:46:18;;;;;;;21.13;6.03;;;10.00;99.90;;;;;;5052188;28;20087;-46
2022/05/15 02:51:28;;;;;;;24.83;6.63;;;9.90;99.90;;;;;;5060777;28;20040;-47
2022/05/15 02:53:53;;;;;;;17.75;6.45;;;9.90;99.90;;;;;;5066137;28;20395;-46
2022/05/15 02:56:25;;;;;;;23.17;7.33;;;9.90;99.90;;;;;;5069600;28;20048;-46
2022/05/15 02:58:51;;;;;;;30.85;6.90;;;9.90;99.90;;;;;;5066105;28;20124;-46
2022/05/15 03:01:17;;;;;;;20.70;7.45;;;9.90;99.90;;;;;;5050302;28;20033;-46
2022/05/15 03:03:43;;;;;;;25.02;6.95;;;9.90;99.90;;;;;;5052979;28;20044;-48
2022/05/15 03:06:10;;;;;;;21.65;6.07;;;9.90;99.90;;;;;;5069882;28;20396;-46
2022/05/15 03:08:38;;;;;;;24.42;7.28;;;9.90;99.90;;;;;;5066887;28;20032;-48
2022/05/15 03:11:03;;;;;;;29.27;7.07;;;9.80;99.90;;;;;;5050041;28;20037;-46
2022/05/15 03:13:30;;;;;;;22.67;8.03;;;9.80;99.90;;;;;;5051898;28;20140;-45
2022/05/15 03:15:56;;;;;;;;;;;9.80;99.90;;;;;;5070459;28;20418;-46
2022/05/15 03:18:21;;;;;;;26.58;5.90;;;9.80;99.90;;;;;;5068482;28;19971;-45
2022/05/15 03:20:47;;;;;;;24.37;7.03;;;9.90;99.90;;;;;;5051591;28;20029;-46
2022/05/15 03:23:13;;;;;;;30.53;6.97;;;9.90;99.90;;;;;;5054850;28;20291;-50
2022/05/15 03:25:39;;;;;;;22.75;7.22;;;9.90;99.90;;;;;;5055035;28;20438;-48
2022/05/15 03:28:09;;;;;;;21.77;5.70;;;9.80;99.90;;;;;;5065114;28;20405;-48
2022/05/15 03:30:36;;;;;;;22.48;6.13;;;9.80;99.90;;;;;;5051796;28;20037;-46
2022/05/15 03:33:02;;;;;;;21.35;7.13;;;9.80;99.90;;;;;;5055743;28;20453;-46
2022/05/15 03:35:28;;;;;;;26.88;7.28;;;9.90;99.90;;;;;;5068220;28;20390;-46
2022/05/15 03:37:53;;;;;;;22.65;6.55;;;10.00;99.90;;;;;;5065889;28;20029;-48
2022/05/15 03:40:19;;;;;;;18.77;5.63;;;10.00;99.90;;;;;;5051410;28;20040;-50
2022/05/15 03:42:44;;;;;;;15.30;5.93;;;10.00;99.90;;;;;;5061297;28;20584;-48
2022/05/15 03:45:11;;;;;;;23.53;5.93;;;9.90;99.90;;;;;;5050758;28;20048;-46
2022/05/15 03:47:44;;;;;;;17.67;6.05;;;9.80;99.90;;;;;;5065609;28;20097;-46
2022/05/15 03:50:10;;;;;;;26.73;6.60;;;9.90;99.90;;;;;;5050827;28;20037;-46
2022/05/15 03:52:35;;;;;;;19.17;6.17;;;9.90;99.90;;;;;;5054226;28;20036;-47
2022/05/15 03:55:02;;;;;;;28.33;8.80;;;9.90;99.90;;;;;;5064859;28;20032;-47
2022/05/15 03:57:28;;;;;;;24.73;7.10;;;9.90;99.90;;;;;;5055229;28;20041;-48
2022/05/15 03:59:53;;;;;;;22.93;7.47;;;10.00;99.90;;;;;;5063388;28;20059;-46
2022/05/15 04:02:19;;;;;;;29.17;7.73;;;10.00;99.90;;;;;;5055569;28;20029;-46
2022/05/15 04:04:44;;;;;;;22.33;6.80;;;9.90;99.90;;;;;;5054391;28;20471;-50
2022/05/15 04:07:10;;;;;;;21.50;7.27;;;10.00;99.90;;;;;;5060846;28;20558;-49
2022/05/15 04:09:38;;;;;;;24.67;6.97;;;10.00;99.90;;;;;;5053842;28;20069;-46
2022/05/15 04:12:04;;;;;;;28.00;7.57;;;10.00;99.90;;;;;;5059610;28;20079;-46
2022/05/15 04:14:30;;;;;;;26.98;7.13;;;10.00;99.90;;;;;;5066881;28;20052;-51
2022/05/15 04:16:55;;;;;;;19.67;5.68;;;10.00;99.90;;;;;;5058771;28;20044;-46
2022/05/15 04:19:22;;;;;;;19.33;6.50;;;10.00;99.90;;;;;;5066071;28;20036;-46
2022/05/15 04:21:47;;;;;;;17.95;6.88;;;9.90;99.90;;;;;;5059314;28;20045;-48
2022/05/15 04:24:15;;;;;;;28.17;7.20;;;9.90;99.90;;;;;;5054251;28;20047;-46
2022/05/15 04:26:42;;;;;;;23.25;7.03;;;9.90;99.90;;;;;;5055578;28;20287;-46
2022/05/15 04:29:09;;;;;;;19.13;6.20;;;9.90;99.90;;;;;;5054571;28;20068;-46
2022/05/15 04:31:35;;;;;;;19.98;6.53;;;9.90;99.90;;;;;;5054621;28;20211;-46
2022/05/15 04:34:01;;;;;;;21.27;6.80;;;10.00;99.90;;;;;;5057239;28;20037;-46
2022/05/15 04:36:27;;;;;;;22.60;7.47;;;10.00;99.90;;;;;;5050366;28;20045;-50
2022/05/15 04:38:53;;;;;;;27.73;7.47;;;10.10;99.90;;;;;;5059922;28;20037;-49
2022/05/15 04:41:18;;;;;;;27.83;7.03;;;10.10;99.90;;;;;;5051961;28;20052;-46
2022/05/15 04:43:44;;;;;;;23.23;6.87;;;10.20;99.90;;;;;;5064397;28;20044;-45
2022/05/15 04:46:09;;;;;;;24.30;8.27;;;10.20;99.90;;;;;;5056786;28;20279;-46
2022/05/15 04:48:38;;;;;;;19.17;7.10;;;10.30;99.90;;;;;;5062018;28;20286;-48
2022/05/15 04:51:04;;;;;;;22.75;7.82;;;10.30;99.90;;;;;;5068765;28;20040;-46
2022/05/15 04:53:33;;;;;;;30.27;8.45;;;10.40;99.90;;;;;;5058930;28;20491;-47
2022/05/15 04:56:00;;;;;;;24.48;8.52;;;10.40;99.90;;;;;;5048663;28;20067;-47
2022/05/15 04:58:27;;;;;;;31.33;8.32;;;10.50;99.90;;;;;;5057521;28;20124;-49
2022/05/15 05:00:52;;;;;;;20.80;6.63;;;10.50;99.90;;;;;;5069259;28;20041;-46
2022/05/15 05:03:18;;;;;;;27.27;7.97;;;10.60;99.90;;;;;;5060938;28;20033;-47
2022/05/15 05:05:44;;;;;;;20.50;6.55;;;10.60;99.90;;;;;;5048550;28;20322;-46
2022/05/15 05:08:12;;;;;;;20.75;6.88;;;10.70;99.90;;;;;;5054083;28;20068;-49
2022/05/15 05:10:38;;;;;;;24.77;8.00;;;10.70;99.90;;;;;;5069997;28;20112;-48
2022/05/15 05:13:04;;;;;;;22.83;7.15;;;10.90;99.90;;;;;;5052914;28;20087;-48
2022/05/15 05:15:30;;;;;;;22.13;7.00;;;10.90;99.90;;;;;;5053402;28;20486;-46
2022/05/15 05:17:56;;;;;;;22.37;8.17;;;11.00;99.90;;;;;;5066157;28;20291;-46
2022/05/15 05:20:21;;;;;;;22.42;7.55;;;11.10;99.90;;;;;;5071051;28;20306;-46
2022/05/15 05:22:47;;;;;;;27.33;9.23;;;11.20;99.90;;;;;;5071654;28;20043;-46
2022/05/15 05:25:13;;;;;;;22.00;6.85;;;11.40;99.90;;;;;;5068905;28;20032;-47
2022/05/15 05:27:41;;;;;;;28.92;6.72;;;11.40;99.90;;;;;;5061524;28;20032;-46
2022/05/15 05:30:10;;;;;;;26.00;7.75;;;11.60;99.90;;;;;;5063951;28;20089;-48
2022/05/15 05:32:35;;;;;;;27.45;8.60;;;11.70;99.90;;;;;;5064037;28;20037;-46
2022/05/15 05:35:01;;;;;;;26.50;6.77;;;11.80;99.90;;;;;;5056711;28;20044;-46
2022/05/15 05:37:27;;;;;;;30.58;7.18;;;11.90;99.90;;;;;;5055901;28;20028;-49
2022/05/15 05:39:52;;;;;;;19.13;6.73;;;12.00;99.90;;;;;;5064154;28;20040;-49
2022/05/15 05:42:18;;;;;;;24.07;8.10;;;12.10;99.90;;;;;;5066805;28;20326;-46
2022/05/15 05:44:43;;;;;;;19.85;6.90;;;12.20;99.90;;;;;;5061318;28;20037;-49
2022/05/15 05:47:09;;;;;;;23.77;6.73;;;12.30;99.90;;;;;;5051669;28;20041;-48
2022/05/15 05:49:35;;;;;;;22.05;6.55;;;12.40;99.90;;;;;;5056933;28;20037;-46
2022/05/15 05:52:00;;;;;;;39.53;8.18;;;12.50;99.90;;;;;;5069396;28;20690;-46
2022/05/15 05:54:26;;;;;;;28.40;7.95;;;12.50;99.90;;;;;;5061463;28;20058;-48
2022/05/15 05:56:52;;;;;;;23.60;6.85;;;12.60;99.90;;;;;;5060170;28;20048;-46
2022/05/15 05:59:17;;;;;;;19.10;5.73;;;12.70;99.90;;;;;;5067065;28;20055;-49
2022/05/15 06:01:43;;;;;;;28.17;7.10;;;12.80;99.90;;;;;;5070837;28;20340;-46
2022/05/15 06:06:52;;;;;;;17.27;5.65;;;13.00;99.90;;;;;;5066412;28;20040;-46
2022/05/15 06:09:18;;;;;;;19.50;7.53;;;13.20;99.90;;;;;;5059192;28;20033;-49
2022/05/15 06:11:43;;;;;;;24.30;6.50;;;13.30;99.90;;;;;;5069551;28;20070;-47
2022/05/15 06:14:09;;;;;;;14.47;6.17;;;13.40;99.90;;;;;;5057840;28;20333;-49
2022/05/15 06:16:34;;;;;;;15.83;7.27;;;13.50;99.90;;;;;;5067090;28;20106;-46
2022/05/15 06:19:00;;;;;;;21.45;5.10;;;13.60;99.90;;;;;;5055575;28;20416;-49
2022/05/15 06:21:26;;;;;;;20.77;5.55;;;13.70;99.90;;;;;;5062518;28;20041;-48
2022/05/15 06:23:51;;;;;;;20.70;6.10;;;13.80;99.90;;;;;;5055165;28;20037;-48
2022/05/15 06:26:17;;;;;;;19.00;5.47;;;13.90;99.90;;;;;;5050867;28;20387;-46
2022/05/15 06:28:43;;;;;;;11.98;5.50;;;14.00;99.90;;;;;;5060921;28;20032;-49
2022/05/15 06:31:08;;;;;;;13.95;5.07;;;14.10;99.90;;;;;;5070859;28;20048;-46
2022/05/15 06:33:34;;;;;;;45.53;4.97;;;14.30;99.90;;;;;;5066733;28;20044;-47
2022/05/15 06:36:00;;;;;;;20.65;5.57;;;14.40;99.90;;;;;;5070611;28;20141;-46
2022/05/15 06:38:26;;;;;;;16.85;6.18;;;14.40;99.40;;;;;;5063613;28;20029;-46
2022/05/15 06:40:52;;;;;;;14.48;5.57;;;14.50;99.50;;;;;;5063167;28;20036;-46
2022/05/15 06:43:17;;;;;;;16.10;4.43;;;14.60;98.90;;;;;;5050796;28;20048;-47
2022/05/15 06:45:43;;;;;;;45.42;5.93;;;14.70;99.20;;;;;;5068129;28;20087;-46
2022/05/15 06:48:09;;;;;;;20.95;4.70;;;14.80;98.70;;;;;;5063663;28;20029;-52
2022/05/15 06:50:35;;;;;;;18.33;3.75;;;14.90;98.90;;;;;;5058230;28;20032;-52
2022/05/15 06:53:01;;;;;;;15.88;4.00;;;15.00;98.30;;;;;;5067167;28;20044;-49
2022/05/15 06:55:27;;;;;;;15.32;4.05;;;15.10;98.40;;;;;;5063575;28;20072;-48
2022/05/15 06:57:52;;;;;;;15.25;4.30;;;15.30;98.40;;;;;;5052733;28;20087;-49
2022/05/15 07:00:22;;;;;;;12.00;4.63;;;15.40;98.20;;;;;;5058299;28;20091;-49
2022/05/15 07:02:48;;;;;;;18.05;5.13;;;15.60;97.60;;;;;;5069547;28;20098;-53
2022/05/15 07:05:19;;;;;;;17.00;3.90;;;15.70;97.10;;;;;;5064520;28;20043;-51
2022/05/15 07:07:46;;;;;;;14.45;4.45;;;15.80;96.70;;;;;;5068737;28;20124;-51
2022/05/15 07:10:12;;;;;;;;;;;15.90;97.10;;;;;;5057994;28;20095;-52
2022/05/15 07:12:38;;;;;;;13.02;3.95;;;16.00;96.50;;;;;;5057667;28;20405;-51
2022/05/15 07:15:04;;;;;;;19.67;5.15;;;16.10;96.10;;;;;;5060659;28;20037;-49
2022/05/15 07:17:30;;;;;;;12.90;4.25;;;16.20;95.90;;;;;;5065112;28;20040;-52
2022/05/15 07:19:56;;;;;;;16.50;3.80;;;16.30;95.90;;;;;;5070689;28;20067;-50
2022/05/15 07:22:21;;;;;;;17.20;4.28;;;16.50;95.60;;;;;;5060592;28;20033;-52
2022/05/15 07:24:47;;;;;;;12.60;3.60;;;16.60;95.30;;;;;;5060195;28;20517;-50
2022/05/15 07:27:14;;;;;;;18.20;4.85;;;16.70;95.20;;;;;;5056159;28;20036;-49
2022/05/15 07:29:41;;;;;;;12.30;4.15;;;16.90;94.80;;;;;;5049048;28;20045;-50
2022/05/15 07:32:08;;;;;;;17.33;3.30;;;17.00;94.80;;;;;;5053977;28;20073;-50
2022/05/15 07:34:34;;;;;;;20.55;4.15;;;17.10;94.80;;;;;;5050115;28;20512;-49
2022/05/15 07:37:00;;;;;;;;;;;17.20;93.30;;;;;;5059059;28;20041;-49
2022/05/15 07:39:25;;;;;;;13.23;3.17;;;17.30;93.40;;;;;;5055675;28;19917;-49
2022/05/15 07:41:51;;;;;;;16.88;3.95;;;17.40;92.90;;;;;;5060757;28;20107;-49
2022/05/15 07:44:17;;;;;;;12.82;3.50;;;17.50;92.30;;;;;;5069969;28;20574;-50
2022/05/15 07:46:43;;;;;;;25.25;3.65;;;17.50;91.80;;;;;;5061593;28;20083;-50
2022/05/15 07:49:09;;;;;;;16.33;3.67;;;17.60;91.90;;;;;;5049792;28;20099;-51
2022/05/15 07:51:35;;;;;;;17.00;3.63;;;17.70;92.20;;;;;;5055252;28;20029;-52
2022/05/15 07:54:01;;;;;;;12.02;2.92;;;17.90;92.10;;;;;;5070016;28;20053;-52
2022/05/15 07:56:27;;;;;;;;;;;18.00;91.70;;;;;;5055245;28;20076;-51
2022/05/15 07:58:52;;;;;;;20.73;4.45;;;18.20;91.10;;;;;;5050546;28;19960;-49
2022/05/15 08:01:18;;;;;;;13.95;3.53;;;18.30;91.00;;;;;;5041618;28;20036;-49
2022/05/15 08:03:45;;;;;;;18.60;3.30;;;18.40;90.10;;;;;;5058689;28;20174;-49
2022/05/15 08:09:00;;;;;;;14.93;4.32;;;18.60;90.20;;;;;;5059284;28;20044;-49
2022/05/15 08:11:28;;;;;;;14.75;2.83;;;18.70;89.20;;;;;;5058141;28;20029;-51
2022/05/15 08:13:55;;;;;;;16.33;3.63;;;18.70;87.80;;;;;;5058846;28;20117;-49
2022/05/15 08:16:21;;;;;;;15.50;3.88;;;18.80;86.20;;;;;;5051838;28;20072;-49
2022/05/15 08:24:16;;;;;;;16.75;3.67;;;19.10;83.80;;;;;;5065306;28;20068;-52
2022/05/15 08:26:44;;;;;;;10.48;2.80;;;19.20;84.90;;;;;;5058576;28;20193;-49
2022/05/15 08:29:10;;;;;;;11.68;3.28;;;19.20;83.00;;;;;;5065009;28;20068;-49
2022/05/15 08:31:36;;;;;;;16.30;3.88;;;19.30;84.80;;;;;;5052778;28;20041;-52
2022/05/15 08:34:01;;;;;;;19.52;3.00;;;19.40;84.30;;;;;;5058981;28;20039;-49
2022/05/15 08:36:27;;;;;;;13.35;3.40;;;19.40;83.30;;;;;;5054508;28;20461;-48
2022/05/15 08:38:52;;;;;;;17.23;3.88;;;19.50;84.00;;;;;;5051473;28;20041;-52
2022/05/15 08:41:45;;;;;;;16.48;3.15;;;19.50;82.50;;;;;;5060377;28;20099;-53
2022/05/15 08:44:27;;;;;;;21.38;3.83;;;19.60;82.10;;;;;;5058483;28;20053;-54
2022/05/15 08:47:23;;;;;;;14.98;3.33;;;19.70;82.00;;;;;;5065043;28;20059;-52
2022/05/15 08:49:57;;;;;;;20.42;4.03;;;19.80;81.60;;;;;;5071503;28;20049;-50
2022/05/15 08:52:30;;;;;;;14.43;3.40;;;19.90;82.10;;;;;;5055438;28;20061;-50
2022/05/15 08:55:00;;;;;;;12.95;2.88;;;20.00;81.70;;;;;;5061535;28;20044;-50
2022/05/15 08:57:49;;;;;;;11.35;3.17;;;20.10;80.60;;;;;;5061140;28;20040;-50
2022/05/15 09:00:19;;;;;;;17.27;3.40;;;20.10;80.20;;;;;;5056831;28;20040;-50
2022/05/15 09:02:45;;;;;;;49.40;5.25;;;20.20;80.10;;;;;;5068561;28;20627;-51
2022/05/15 09:05:13;;;;;;;18.10;3.85;;;20.20;79.60;;;;;;5067518;28;20305;-50
2022/05/15 09:07:52;;;;;;;19.50;3.53;;;20.30;79.80;;;;;;5068067;28;20452;-50
2022/05/15 09:10:33;;;;;;;12.68;3.13;;;20.40;79.40;;;;;;5070360;28;20496;-52
2022/05/15 09:13:18;;;;;;;15.35;3.78;;;20.50;78.80;;;;;;5053582;28;20041;-50
2022/05/15 09:16:01;;;;;;;34.08;5.07;;;20.60;77.70;;;;;;5062127;28;20040;-50
2022/05/15 09:18:28;;;;;;;29.10;3.33;;;20.70;77.60;;;;;;5065178;28;20509;-53
2022/05/15 09:20:57;;;;;;;16.35;3.30;;;20.70;77.80;;;;;;5061761;28;20037;-49
2022/05/15 09:23:29;;;;;;;21.88;3.67;;;20.80;77.00;;;;;;5056086;28;20356;-50
2022/05/15 09:25:58;;;;;;;14.43;2.97;;;20.80;75.00;;;;;;5059583;28;20045;-50
2022/05/15 09:28:26;;;;;;;20.40;4.20;;;20.80;77.20;;;;;;5056579;28;20065;-53
2022/05/15 09:30:55;;;;;;;15.63;3.63;;;20.90;76.90;;;;;;5052733;28;20052;-50
2022/05/15 09:33:38;;;;;;;16.50;3.13;;;21.00;76.00;;;;;;5056616;28;20040;-49
2022/05/15 09:36:22;;;;;;;14.30;3.95;;;21.10;75.90;;;;;;5061712;28;20557;-54
2022/05/15 09:38:51;;;;;;;14.13;3.38;;;21.10;74.00;;;;;;5068608;28;20048;-53
2022/05/15 09:44:34;;;;;;;15.10;3.80;;;21.10;73.80;;;;;;5061785;28;20040;-49
2022/05/15 09:47:23;;;;;;;15.73;3.63;;;21.20;74.00;;;;;;5061665;28;20032;-47
2022/05/15 09:49:49;;;;;;;9.43;2.67;;;21.30;72.70;;;;;;5072227;28;20068;-48
2022/05/15 09:52:18;;;;;;;;;;;21.40;74.30;;;;;;5062839;28;20540;-49
2022/05/15 09:54:47;;;;;;;12.70;3.17;;;21.50;73.60;;;;;;5069927;28;19920;-46
2022/05/15 09:57:22;;;;;;;16.23;3.15;;;21.50;73.60;;;;;;5059235;28;20519;-49
2022/05/15 09:59:59;;;;;;;13.85;2.47;;;21.60;73.90;;;;;;5070000;28;20056;-47
2022/05/15 10:02:47;;;;;;;27.92;3.63;;;21.60;71.20;;;;;;5068802;28;20052;-46
2022/05/15 10:05:20;;;;;;;12.77;3.15;;;21.60;71.90;;;;;;5065567;28;20041;-45
2022/05/15 10:08:03;;;;;;;16.95;2.83;;;21.60;71.50;;;;;;5061208;28;20548;-49
2022/05/15 10:10:54;;;;;;;20.20;3.60;;;21.60;71.80;;;;;;5055165;28;20029;-50
2022/05/15 10:13:44;;;;;;;14.60;3.20;;;21.60;72.10;;;;;;5028204;28;20060;-49
2022/05/15 10:16:18;;;;;;;13.88;3.22;;;21.70;71.40;;;;;;5061849;28;20043;-49
2022/05/15 10:18:58;;;;;;;21.58;3.67;;;21.80;71.70;;;;;;5056030;28;20048;-49
2022/05/15 10:21:28;;;;;;;14.98;3.17;;;21.90;70.30;;;;;;5064052;28;20037;-49
2022/05/15 10:23:59;;;;;;;14.98;2.67;;;21.90;71.00;;;;;;5052828;28;20049;-49
2022/05/15 10:27:02;;;;;;;14.07;4.03;;;21.90;70.80;;;;;;5058851;28;20086;-53
2022/05/15 10:29:36;;;;;;;17.60;3.35;;;21.90;69.30;;;;;;5066520;28;20194;-52
2022/05/15 10:32:38;;;;;;;12.55;2.72;;;21.80;68.40;;;;;;5079118;28;20043;-49
2022/05/15 10:35:05;;;;;;;14.82;3.00;;;21.70;68.10;;;;;;5066934;28;20089;-51
2022/05/15 10:37:43;;;;;;;19.15;3.88;;;21.70;69.10;;;;;;5067705;28;20242;-49
2022/05/15 10:40:36;;;;;;;8.60;2.17;;;21.60;69.20;;;;;;5060798;28;20079;-49
2022/05/15 10:43:14;;;;;;;15.82;2.58;;;21.70;70.40;;;;;;5065246;28;20044;-49
2022/05/15 10:45:49;;;;;;;11.02;3.05;;;21.70;68.40;;;;;;5050657;28;20033;-49
2022/05/15 10:49:01;;;;;;;11.20;3.17;;;21.70;67.90;;;;;;5050915;28;20079;-51
2022/05/15 10:51:50;;;;;;;12.32;2.83;;;21.80;69.20;;;;;;5049647;28;20041;-49
2022/05/15 10:57:26;;;;;;;;;;;22.00;66.70;;;;;;5070931;28;20049;-51
2022/05/15 11:00:08;;;;;;;13.55;3.40;;;22.10;67.00;;;;;;5064926;28;19970;-50
2022/05/15 11:03:02;;;;;;;14.85;2.90;;;22.20;67.40;;;;;;5069994;28;20076;-50
2022/05/15 11:05:45;;;;;;;13.48;2.60;;;22.30;64.90;;;;;;5057205;28;20075;-51
2022/05/15 11:08:34;;;;;;;10.50;2.42;;;22.30;63.90;;;;;;5082872;28;20032;-48
2022/05/15 11:11:18;;;;;;;10.68;2.13;;;22.20;63.70;;;;;;5059152;28;20036;-51
2022/05/15 11:13:55;;;;;;;9.88;1.92;;;22.30;65.10;;;;;;5052611;28;20048;-48
2022/05/15 11:16:29;;;;;;;13.00;2.53;;;22.40;64.40;;;;;;5056669;28;20167;-48
2022/05/15 11:19:14;;;;;;;13.10;2.17;;;22.40;63.10;;;;;;5061125;28;20036;-48
2022/05/15 11:22:00;;;;;;;15.27;2.97;;;22.40;64.10;;;;;;5066349;28;20037;-49
2022/05/15 11:24:53;;;;;;;15.07;3.70;;;22.50;64.10;;;;;;5060586;28;20041;-50
2022/05/15 11:27:28;;;;;;;14.10;2.60;;;22.50;63.70;;;;;;5056359;28;20037;-51
2022/05/15 11:29:56;;;;;;;12.50;3.20;;;22.50;62.00;;;;;;5059869;28;20037;-52
2022/05/15 11:32:33;;;;;;;13.13;2.38;;;22.50;62.70;;;;;;5058078;28;20047;-48
2022/05/15 11:35:00;;;;;;;;;;;22.40;62.60;;;;;;5052885;28;20077;-53
2022/05/15 11:37:38;;;;;;;10.98;2.30;;;22.50;63.70;;;;;;5051427;28;19925;-50
2022/05/15 11:40:26;;;;;;;10.10;2.70;;;22.50;64.00;;;;;;5058097;28;20044;-48
2022/05/15 11:42:52;;;;;;;10.90;2.55;;;22.60;62.80;;;;;;5058827;28;20044;-49
2022/05/15 11:45:35;;;;;;;;;;;22.70;62.80;;;;;;5056231;28;20032;-51
2022/05/15 11:48:16;;;;;;;14.93;1.95;;;22.70;63.00;;;;;;5059625;28;19924;-48
2022/05/15 11:50:55;;;;;;;8.00;1.98;;;22.80;62.00;;;;;;5085013;28;20036;-50
2022/05/15 11:53:35;;;;;;;13.95;2.83;;;22.80;60.20;;;;;;5068255;28;20123;-48
2022/05/15 11:56:35;;;;;;;13.20;3.40;;;22.90;62.40;;;;;;5068393;28;20048;-48
2022/05/15 11:59:22;;;;;;;12.68;2.22;;;23.00;61.10;;;;;;5050591;28;20049;-48
2022/05/15 12:01:54;;;;;;;15.40;2.60;;;23.10;61.70;;;;;;5064464;28;20067;-54
2022/05/15 12:04:25;;;;;;;8.98;3.08;;;23.20;62.10;;;;;;5054069;28;20080;-48
2022/05/15 12:06:57;;;;;;;12.25;3.45;;;23.20;59.50;;;;;;5049767;28;20043;-49
2022/05/15 12:09:50;;;;;;;10.25;3.03;;;23.20;60.10;;;;;;5050492;28;20037;-49
2022/05/15 12:12:22;;;;;;;14.75;2.67;;;23.30;60.20;;;;;;5044660;28;20090;-48
2022/05/15 12:15:16;;;;;;;10.13;2.47;;;23.40;60.80;;;;;;5069680;28;20987;-51
2022/05/15 12:17:44;;;;;;;11.05;2.47;;;23.50;59.80;;;;;;5066154;28;20038;-48
2022/05/15 12:20:28;;;;;;;12.25;2.47;;;23.60;59.80;;;;;;5072734;28;20040;-48
2022/05/15 12:22:58;;;;;;;12.77;3.10;;;23.60;58.10;;;;;;5069343;28;20048;-49
2022/05/15 12:25:30;;;;;;;11.48;2.22;;;23.60;58.90;;;;;;5087791;28;20032;-48
2022/05/15 12:31:16;;;;;;;9.35;1.50;;;23.50;59.00;;;;;;5065582;28;20711;-49
2022/05/15 12:33:43;;;;;;;11.15;2.13;;;23.50;58.90;;;;;;5056991;28;20052;-49
2022/05/15 12:36:19;;;;;;;10.80;1.95;;;23.60;58.80;;;;;;5055871;28;20490;-47
2022/05/15 12:38:46;;;;;;;;;;;23.80;58.40;;;;;;5054833;28;20068;-49
2022/05/15 12:41:21;;;;;;;16.17;2.63;;;23.80;58.80;;;;;;5055666;28;19920;-52
2022/05/15 12:43:51;;;;;;;9.85;2.20;;;23.80;57.80;;;;;;5063642;28;20040;-52
2022/05/15 12:46:37;;;;;;;10.50;1.65;;;24.00;58.30;;;;;;5067848;28;20409;-52
2022/05/15 12:49:05;;;;;;;12.45;1.98;;;24.00;57.40;;;;;;5071817;28;20029;-52
2022/05/15 12:51:36;;;;;;;12.35;1.63;;;24.00;58.00;;;;;;5067721;28;20090;-53
2022/05/15 12:54:18;;;;;;;12.95;2.65;;;24.10;58.10;;;;;;5071254;28;20517;-53
2022/05/15 12:56:44;;;;;;;13.02;3.45;;;24.10;58.30;;;;;;5067564;28;20071;-56
2022/05/15 12:59:18;;;;;;;501.05;33.13;;;24.20;58.40;;;;;;5065931;28;20064;-56
2022/05/15 13:01:45;;;;;;;15.15;2.63;;;24.20;57.60;;;;;;5064751;28;20049;-54
2022/05/15 13:04:18;;;;;;;10.63;2.47;;;24.20;57.30;;;;;;5063187;28;20048;-52
2022/05/15 13:06:54;;;;;;;10.07;2.17;;;24.20;57.20;;;;;;5066511;28;20028;-51
2022/05/15 13:09:26;;;;;;;14.95;2.80;;;24.10;56.50;;;;;;5062580;28;20040;-51
2022/05/15 13:11:59;;;;;;;12.70;1.95;;;24.20;56.80;;;;;;5054089;28;20033;-49
2022/05/15 13:14:40;;;;;;;16.30;3.33;;;24.20;56.30;;;;;;5061753;28;20115;-52
2022/05/15 13:17:10;;;;;;;13.23;3.03;;;24.20;57.30;;;;;;5059340;28;20136;-51
2022/05/15 13:19:55;;;;;;;11.20;2.80;;;24.10;55.80;;;;;;5061262;28;20032;-55